Club Med II — FNIR — position and weather

sailwx.info

Track history (hours):
 
Tides and Currents Weather Stations Pressure Air Temp Water Temp Dewpoint Dewpoint Depression Visibility Wind Speed Wind Dir Waves Ship Positions

Club Med II

Operator: V.Ships Leisure S.A.M

Last reported at 2017-Nov-19 13:19 UTC. Time now 2017-Nov-19 14:16 UTC.
Position N 15°52' W 061°35'.

Length 187 m; draft 5.2 m.

Type: Ship. MMSI: 227194000.

Date/timePositionNaut miles runAvg speedWind from/ knotsBaromVisibWave heightAir tempDewpointWater temp
2017-Nov-19 13:19N 15°52' W 061°35'0 0.0
2017-Nov-19 11:48N 15°52' W 061°35'0 0.1
2017-Nov-19 11:30N 15°52' W 061°35'7 6.2
2017-Nov-19 10:20N 15°54' W 061°43'2 6.8
2017-Nov-19 10:00N 15°54' W 061°45'4 6.4
2017-Nov-19 09:27N 15°55' W 061°49'5 5.3
2017-Nov-19 08:33N 15°55' W 061°53'3 5.9
2017-Nov-19 07:59N 15°57' W 061°56'4 5.7
2017-Nov-19 07:21N 15°60' W 061°59'2 5.3
2017-Nov-19 07:00N 16°01' W 062°00'4 5.0
2017-Nov-19 06:18N 16°04' W 062°02'18 3.1
2017-Nov-19 00:36N 15°53' W 061°48'12 7.3
2017-Nov-18 22:56N 15°56' W 061°35'15 1.4
2017-Nov-18 11:57N 15°57' W 061°20'2411.9
2017-Nov-18 09:56N 15°38' W 061°34'814.2
2017-Nov-18 09:23N 15°31' W 061°38'814.6
2017-Nov-18 08:51N 15°23' W 061°35'1014.8
2017-Nov-18 08:12N 15°14' W 061°33'4113.8
2017-Nov-18 05:15N 14°39' W 061°11'8 1.3
2017-Nov-17 22:58N 14°36' W 061°04'0 0.0
2017-Nov-17 22:28N 14°36' W 061°04'0 0.0
2017-Nov-17 19:55N 14°36' W 061°04'0 0.0
2017-Nov-17 19:28N 14°36' W 061°04'0 0.0
2017-Nov-17 18:55N 14°36' W 061°04'0 0.0
2017-Nov-17 18:25N 14°36' W 061°04'0 0.0
2017-Nov-17 17:40N 14°36' W 061°04'0 0.0
2017-Nov-17 17:22N 14°36' W 061°04'0 0.0
2017-Nov-17 16:46N 14°36' W 061°04'0 0.0
2017-Nov-17 15:31N 14°36' W 061°04'0 0.0
2017-Nov-17 15:16N 14°36' W 061°04'0 0.0
2017-Nov-17 14:58N 14°36' W 061°04'0 0.0
2017-Nov-17 14:28N 14°36' W 061°04'  
2017-Nov-11 11:19N 14°07' W 060°60'3 8.6
2017-Nov-11 10:59N 14°08' W 061°02'4 8.1
2017-Nov-11 10:30N 14°11' W 061°05'4 7.7
2017-Nov-11 09:59N 14°14' W 061°08'4 7.6
2017-Nov-11 09:28N 14°16' W 061°11'16 5.4
2017-Nov-11 06:37N 14°30' W 061°20'0 4.9
2017-Nov-11 06:30N 14°30' W 061°19'2 4.9
2017-Nov-11 06:01N 14°32' W 061°17'3 5.2
2017-Nov-11 05:30N 14°32' W 061°15'3 5.2
2017-Nov-11 05:00N 14°33' W 061°12'3 5.2
2017-Nov-11 04:30N 14°34' W 061°10'3 5.3
2017-Nov-11 04:00N 14°35' W 061°07'3 6.2
2017-Nov-11 03:31N 14°35' W 061°04'1 1.6
2017-Nov-11 02:58N 14°36' W 061°04'0 0.0
2017-Nov-11 02:25N 14°36' W 061°04'0 0.0
2017-Nov-11 01:58N 14°36' W 061°04'0 0.0
2017-Nov-11 01:28N 14°36' W 061°04'0 0.0
2017-Nov-11 00:52N 14°36' W 061°04'0 0.0
2017-Nov-11 00:28N 14°36' W 061°04'0 0.0
2017-Nov-10 23:49N 14°36' W 061°04'0 0.0
2017-Nov-10 23:28N 14°36' W 061°04'0 0.0
2017-Nov-10 11:46N 14°36' W 061°04'1 2.8
2017-Nov-10 11:30N 14°35' W 061°04'3 6.8
2017-Nov-10 11:00N 14°34' W 061°07'4 8.0
2017-Nov-10 10:30N 14°31' W 061°09'4 8.3
2017-Nov-10 10:00N 14°27' W 061°12'4 9.0
2017-Nov-10 09:30N 14°23' W 061°14'  
Track history (hours):
 
Tides and Currents Weather Stations Pressure Air Temp Water Temp Dewpoint Dewpoint Depression Visibility Wind Speed Wind Dir Waves Ship Positions

Club Med II

Operator: V.Ships Leisure S.A.M

Last reported at 2017-Nov-19 13:19 UTC. Time now 2017-Nov-19 14:16 UTC.
Position N 15°52' W 061°35'.

Length 187 m; draft 5.2 m.

Type: Ship. MMSI: 227194000.

Date/timePositionNaut miles runAvg speedWind from/ knotsBaromVisibWave heightAir tempDewpointWater temp
2017-Nov-19 13:19N 15°52' W 061°35'0 0.0
2017-Nov-19 11:48N 15°52' W 061°35'0 0.1
2017-Nov-19 11:30N 15°52' W 061°35'7 6.2
2017-Nov-19 10:20N 15°54' W 061°43'2 6.8
2017-Nov-19 10:00N 15°54' W 061°45'4 6.4
2017-Nov-19 09:27N 15°55' W 061°49'5 5.3
2017-Nov-19 08:33N 15°55' W 061°53'3 5.9
2017-Nov-19 07:59N 15°57' W 061°56'4 5.7
2017-Nov-19 07:21N 15°60' W 061°59'2 5.3
2017-Nov-19 07:00N 16°01' W 062°00'4 5.0
2017-Nov-19 06:18N 16°04' W 062°02'18 3.1
2017-Nov-19 00:36N 15°53' W 061°48'12 7.3
2017-Nov-18 22:56N 15°56' W 061°35'15 1.4
2017-Nov-18 11:57N 15°57' W 061°20'2411.9
2017-Nov-18 09:56N 15°38' W 061°34'814.2
2017-Nov-18 09:23N 15°31' W 061°38'814.6
2017-Nov-18 08:51N 15°23' W 061°35'1014.8
2017-Nov-18 08:12N 15°14' W 061°33'4113.8
2017-Nov-18 05:15N 14°39' W 061°11'8 1.3
2017-Nov-17 22:58N 14°36' W 061°04'0 0.0
2017-Nov-17 22:28N 14°36' W 061°04'0 0.0
2017-Nov-17 19:55N 14°36' W 061°04'0 0.0
2017-Nov-17 19:28N 14°36' W 061°04'0 0.0
2017-Nov-17 18:55N 14°36' W 061°04'0 0.0
2017-Nov-17 18:25N 14°36' W 061°04'0 0.0
2017-Nov-17 17:40N 14°36' W 061°04'0 0.0
2017-Nov-17 17:22N 14°36' W 061°04'0 0.0
2017-Nov-17 16:46N 14°36' W 061°04'0 0.0
2017-Nov-17 15:31N 14°36' W 061°04'0 0.0
2017-Nov-17 15:16N 14°36' W 061°04'0 0.0
2017-Nov-17 14:58N 14°36' W 061°04'0 0.0
2017-Nov-17 14:28N 14°36' W 061°04'  
2017-Nov-11 11:19N 14°07' W 060°60'3 8.6
2017-Nov-11 10:59N 14°08' W 061°02'4 8.1
2017-Nov-11 10:30N 14°11' W 061°05'4 7.7
2017-Nov-11 09:59N 14°14' W 061°08'4 7.6
2017-Nov-11 09:28N 14°16' W 061°11'16 5.4
2017-Nov-11 06:37N 14°30' W 061°20'0 4.9
2017-Nov-11 06:30N 14°30' W 061°19'2 4.9
2017-Nov-11 06:01N 14°32' W 061°17'3 5.2
2017-Nov-11 05:30N 14°32' W 061°15'3 5.2
2017-Nov-11 05:00N 14°33' W 061°12'3 5.2
2017-Nov-11 04:30N 14°34' W 061°10'3 5.3
2017-Nov-11 04:00N 14°35' W 061°07'3 6.2
2017-Nov-11 03:31N 14°35' W 061°04'1 1.6
2017-Nov-11 02:58N 14°36' W 061°04'0 0.0
2017-Nov-11 02:25N 14°36' W 061°04'0 0.0
2017-Nov-11 01:58N 14°36' W 061°04'0 0.0
2017-Nov-11 01:28N 14°36' W 061°04'0 0.0
2017-Nov-11 00:52N 14°36' W 061°04'0 0.0
2017-Nov-11 00:28N 14°36' W 061°04'0 0.0
2017-Nov-10 23:49N 14°36' W 061°04'0 0.0
2017-Nov-10 23:28N 14°36' W 061°04'0 0.0
2017-Nov-10 11:46N 14°36' W 061°04'1 2.8
2017-Nov-10 11:30N 14°35' W 061°04'3 6.8
2017-Nov-10 11:00N 14°34' W 061°07'4 8.0
2017-Nov-10 10:30N 14°31' W 061°09'4 8.3
2017-Nov-10 10:00N 14°27' W 061°12'4 9.0
2017-Nov-10 09:30N 14°23' W 061°14'  

Dump ship's entire track history